sensor_id;sensor_type;location;lat;lon;timestamp;pressure;altitude;pressure_sealevel;temperature;humidity
54556;BME280;57291;37.520;15.106;2023-11-19T00:00:10;101875.13;;;13.56;46.67
54556;BME280;57291;37.520;15.106;2023-11-19T00:02:41;101873.00;;;13.48;46.48
54556;BME280;57291;37.520;15.106;2023-11-19T00:05:10;101864.78;;;13.48;46.67
54556;BME280;57291;37.520;15.106;2023-11-19T00:07:42;101866.44;;;13.49;46.55
54556;BME280;57291;37.520;15.106;2023-11-19T00:10:14;101869.19;;;13.49;46.32
54556;BME280;57291;37.520;15.106;2023-11-19T00:12:47;101876.25;;;13.50;46.45
54556;BME280;57291;37.520;15.106;2023-11-19T00:15:18;101873.53;;;13.50;46.38
54556;BME280;57291;37.520;15.106;2023-11-19T00:17:47;101873.00;;;13.48;46.40
54556;BME280;57291;37.520;15.106;2023-11-19T00:20:20;101871.06;;;13.49;46.86
54556;BME280;57291;37.520;15.106;2023-11-19T00:22:50;101868.34;;;13.49;46.83
54556;BME280;57291;37.520;15.106;2023-11-19T00:25:20;101871.06;;;13.49;46.83
54556;BME280;57291;37.520;15.106;2023-11-19T00:27:50;101875.44;;;13.50;46.53
54556;BME280;57291;37.520;15.106;2023-11-19T00:30:19;101874.63;;;13.49;46.33
54556;BME280;57291;37.520;15.106;2023-11-19T00:32:47;101867.53;;;13.48;46.15
54556;BME280;57291;37.520;15.106;2023-11-19T00:35:14;101867.81;;;13.47;45.79
54556;BME280;57291;37.520;15.106;2023-11-19T00:37:42;101854.16;;;13.47;45.11
54556;BME280;57291;37.520;15.106;2023-11-19T00:40:10;101863.19;;;13.47;45.54
54556;BME280;57291;37.520;15.106;2023-11-19T00:42:40;101861.31;;;13.43;45.39
54556;BME280;57291;37.520;15.106;2023-11-19T00:45:07;101871.13;;;13.44;45.27
54556;BME280;57291;37.520;15.106;2023-11-19T00:47:38;101867.84;;;13.42;45.61
54556;BME280;57291;37.520;15.106;2023-11-19T00:50:06;101866.78;;;13.43;45.60
54556;BME280;57291;37.520;15.106;2023-11-19T00:52:37;101864.63;;;13.40;45.23
54556;BME280;57291;37.520;15.106;2023-11-19T00:55:05;101862.97;;;13.38;45.53
54556;BME280;57291;37.520;15.106;2023-11-19T00:57:34;101862.47;;;13.36;46.32
54556;BME280;57291;37.520;15.106;2023-11-19T01:00:04;101862.47;;;13.36;46.37
54556;BME280;57291;37.520;15.106;2023-11-19T01:02:36;101859.19;;;13.34;46.58
54556;BME280;57291;37.520;15.106;2023-11-19T01:05:04;101858.66;;;13.32;46.37
54556;BME280;57291;37.520;15.106;2023-11-19T01:07:32;101857.59;;;13.28;46.95
54556;BME280;57291;37.520;15.106;2023-11-19T01:09:59;101862.00;;;13.24;47.32
54556;BME280;57291;37.520;15.106;2023-11-19T01:12:26;101864.72;;;13.24;47.10
54556;BME280;57291;37.520;15.106;2023-11-19T01:14:54;101858.47;;;13.19;47.13
54556;BME280;57291;37.520;15.106;2023-11-19T01:17:21;101866.38;;;13.20;47.12
54556;BME280;57291;37.520;15.106;2023-11-19T01:19:50;101859.00;;;13.21;47.76
54556;BME280;57291;37.520;15.106;2023-11-19T01:22:17;101863.09;;;13.18;47.65
54556;BME280;57291;37.520;15.106;2023-11-19T01:24:46;101854.91;;;13.18;47.73
54556;BME280;57291;37.520;15.106;2023-11-19T01:27:13;101854.09;;;13.18;47.04
54556;BME280;57291;37.520;15.106;2023-11-19T01:29:40;101853.81;;;13.19;47.06
54556;BME280;57291;37.520;15.106;2023-11-19T01:32:09;101855.47;;;13.20;47.35
54556;BME280;57291;37.520;15.106;2023-11-19T01:34:37;101853.31;;;13.12;47.63
54556;BME280;57291;37.520;15.106;2023-11-19T01:37:04;101843.53;;;13.06;47.69
54556;BME280;57291;37.520;15.106;2023-11-19T01:39:31;101853.16;;;12.98;47.53
54556;BME280;57291;37.520;15.106;2023-11-19T01:41:59;101850.44;;;12.98;47.17
54556;BME280;57291;37.520;15.106;2023-11-19T01:44:26;101857.25;;;13.01;46.73
54556;BME280;57291;37.520;15.106;2023-11-19T01:46:53;101868.97;;;13.01;46.72
54556;BME280;57291;37.520;15.106;2023-11-19T01:49:21;101870.06;;;13.00;46.92
54556;BME280;57291;37.520;15.106;2023-11-19T01:51:48;101866.53;;;13.00;46.88
54556;BME280;57291;37.520;15.106;2023-11-19T01:54:16;101853.97;;;12.99;47.07
54556;BME280;57291;37.520;15.106;2023-11-19T01:56:43;101862.69;;;13.01;46.96
54556;BME280;57291;37.520;15.106;2023-11-19T01:59:12;101862.16;;;12.99;47.34
54556;BME280;57291;37.520;15.106;2023-11-19T02:01:43;101861.06;;;13.00;47.23
54556;BME280;57291;37.520;15.106;2023-11-19T02:04:11;101864.88;;;12.99;47.32
54556;BME280;57291;37.520;15.106;2023-11-19T02:06:40;101858.63;;;12.98;47.12
54556;BME280;57291;37.520;15.106;2023-11-19T02:09:09;101852.63;;;12.96;47.09
54556;BME280;57291;37.520;15.106;2023-11-19T02:11:39;101852.34;;;12.98;47.17
54556;BME280;57291;37.520;15.106;2023-11-19T02:14:07;101846.09;;;12.97;47.41
54556;BME280;57291;37.520;15.106;2023-11-19T02:16:34;101842.25;;;12.98;47.56
54556;BME280;57291;37.520;15.106;2023-11-19T02:19:02;101841.19;;;12.94;47.45
54556;BME280;57291;37.520;15.106;2023-11-19T02:21:30;101831.91;;;12.95;47.59
54556;BME280;57291;37.520;15.106;2023-11-19T02:23:58;101820.75;;;12.91;47.83
54556;BME280;57291;37.520;15.106;2023-11-19T02:29:03;101819.44;;;12.84;47.99
54556;BME280;57291;37.520;15.106;2023-11-19T02:31:34;101828.94;;;12.86;47.80
54556;BME280;57291;37.520;15.106;2023-11-19T02:34:02;101819.44;;;12.84;47.71
54556;BME280;57291;37.520;15.106;2023-11-19T02:36:29;101814.78;;;12.84;47.77
54556;BME280;57291;37.520;15.106;2023-11-19T02:38:57;101810.44;;;12.83;47.74
54556;BME280;57291;37.520;15.106;2023-11-19T02:41:24;101807.72;;;12.83;47.86
54556;BME280;57291;37.520;15.106;2023-11-19T02:43:51;101808.78;;;12.82;47.98
54556;BME280;57291;37.520;15.106;2023-11-19T02:46:19;101814.78;;;12.84;48.10
54556;BME280;57291;37.520;15.106;2023-11-19T02:48:46;101812.88;;;12.85;48.21
54556;BME280;57291;37.520;15.106;2023-11-19T02:51:13;101821.06;;;12.85;48.22
54556;BME280;57291;37.520;15.106;2023-11-19T02:53:41;101830.63;;;12.82;48.05
54556;BME280;57291;37.520;15.106;2023-11-19T02:56:11;101825.72;;;12.84;48.40
54556;BME280;57291;37.520;15.106;2023-11-19T02:58:43;101820.25;;;12.84;48.37
54556;BME280;57291;37.520;15.106;2023-11-19T03:01:12;101828.13;;;12.86;48.42
54556;BME280;57291;37.520;15.106;2023-11-19T03:03:50;101828.69;;;12.83;48.73
54556;BME280;57291;37.520;15.106;2023-11-19T03:06:25;101827.31;;;12.85;48.77
54556;BME280;57291;37.520;15.106;2023-11-19T03:08:52;101820.81;;;12.81;48.61
54556;BME280;57291;37.520;15.106;2023-11-19T03:11:20;101816.94;;;12.87;48.92
54556;BME280;57291;37.520;15.106;2023-11-19T03:13:47;101825.66;;;12.89;48.96
54556;BME280;57291;37.520;15.106;2023-11-19T03:16:14;101830.03;;;12.90;48.82
54556;BME280;57291;37.520;15.106;2023-11-19T03:18:41;101831.66;;;12.91;49.07
54556;BME280;57291;37.520;15.106;2023-11-19T03:21:09;101824.25;;;12.97;49.05
54556;BME280;57291;37.520;15.106;2023-11-19T03:23:38;101817.97;;;12.97;49.21
54556;BME280;57291;37.520;15.106;2023-11-19T03:26:07;101821.53;;;12.97;49.05
54556;BME280;57291;37.520;15.106;2023-11-19T03:28:35;101834.63;;;12.95;49.09
54556;BME280;57291;37.520;15.106;2023-11-19T03:31:06;101832.72;;;12.96;49.12
54556;BME280;57291;37.520;15.106;2023-11-19T03:33:37;101830.53;;;12.93;49.33
54556;BME280;57291;37.520;15.106;2023-11-19T03:36:05;101834.91;;;12.94;49.52
54556;BME280;57291;37.520;15.106;2023-11-19T03:38:33;101840.91;;;12.96;49.50
54556;BME280;57291;37.520;15.106;2023-11-19T03:41:00;101842.25;;;12.98;49.63
54556;BME280;57291;37.520;15.106;2023-11-19T03:43:27;101840.63;;;12.97;49.63
54556;BME280;57291;37.520;15.106;2023-11-19T03:45:55;101853.72;;;12.95;49.72
54556;BME280;57291;37.520;15.106;2023-11-19T03:48:22;101846.66;;;12.94;49.40
54556;BME280;57291;37.520;15.106;2023-11-19T03:50:50;101845.53;;;12.95;49.46
54556;BME280;57291;37.520;15.106;2023-11-19T03:53:17;101840.94;;;12.90;49.46
54556;BME280;57291;37.520;15.106;2023-11-19T03:55:45;101838.72;;;12.93;49.76
54556;BME280;57291;37.520;15.106;2023-11-19T03:58:13;101846.66;;;12.94;49.79
54556;BME280;57291;37.520;15.106;2023-11-19T04:00:40;101846.09;;;12.97;49.51
54556;BME280;57291;37.520;15.106;2023-11-19T04:03:11;101849.63;;;12.98;49.61
54556;BME280;57291;37.520;15.106;2023-11-19T04:05:38;101852.91;;;12.95;49.69
54556;BME280;57291;37.520;15.106;2023-11-19T04:08:06;101851.00;;;12.95;49.58
54556;BME280;57291;37.520;15.106;2023-11-19T04:10:33;101859.47;;;12.94;49.58
54556;BME280;57291;37.520;15.106;2023-11-19T04:13:00;101862.22;;;12.94;49.53
54556;BME280;57291;37.520;15.106;2023-11-19T04:15:28;101873.69;;;12.90;49.66
54556;BME280;57291;37.520;15.106;2023-11-19T04:17:55;101875.31;;;12.91;49.66
54556;BME280;57291;37.520;15.106;2023-11-19T04:20:23;101857.31;;;12.90;49.70
54556;BME280;57291;37.520;15.106;2023-11-19T04:22:50;101862.47;;;12.92;49.48
54556;BME280;57291;37.520;15.106;2023-11-19T04:25:18;101853.47;;;12.91;49.62
54556;BME280;57291;37.520;15.106;2023-11-19T04:27:46;101859.75;;;12.92;49.38
54556;BME280;57291;37.520;15.106;2023-11-19T04:30:15;101860.03;;;12.90;49.68
54556;BME280;57291;37.520;15.106;2023-11-19T04:32:42;101857.84;;;12.93;49.65
54556;BME280;57291;37.520;15.106;2023-11-19T04:35:10;101867.66;;;12.94;49.44
54556;BME280;57291;37.520;15.106;2023-11-19T04:37:37;101855.91;;;12.93;49.63
54556;BME280;57291;37.520;15.106;2023-11-19T04:40:06;101861.66;;;12.91;49.88
54556;BME280;57291;37.520;15.106;2023-11-19T04:42:34;101873.94;;;12.94;49.70
54556;BME280;57291;37.520;15.106;2023-11-19T04:45:01;101869.84;;;12.91;49.96
54556;BME280;57291;37.520;15.106;2023-11-19T04:47:28;101870.97;;;12.90;50.21
54556;BME280;57291;37.520;15.106;2023-11-19T04:49:56;101879.97;;;12.91;49.99
54556;BME280;57291;37.520;15.106;2023-11-19T04:52:23;101873.13;;;12.94;50.06
54556;BME280;57291;37.520;15.106;2023-11-19T04:54:50;101873.44;;;12.87;49.84
54556;BME280;57291;37.520;15.106;2023-11-19T04:57:17;101880.78;;;12.86;49.76
54556;BME280;57291;37.520;15.106;2023-11-19T04:59:44;101880.84;;;12.81;49.90
54556;BME280;57291;37.520;15.106;2023-11-19T05:02:12;101883.56;;;12.81;49.96
54556;BME280;57291;37.520;15.106;2023-11-19T05:04:43;101883.00;;;12.79;49.91
54556;BME280;57291;37.520;15.106;2023-11-19T05:07:14;101884.13;;;12.73;50.67
54556;BME280;57291;37.520;15.106;2023-11-19T05:09:41;101882.81;;;12.71;50.43
54556;BME280;57291;37.520;15.106;2023-11-19T05:12:10;101870.81;;;12.66;50.31
54556;BME280;57291;37.520;15.106;2023-11-19T05:14:39;101887.16;;;12.66;50.53
54556;BME280;57291;37.520;15.106;2023-11-19T05:17:06;101885.00;;;12.68;50.71
54556;BME280;57291;37.520;15.106;2023-11-19T05:19:35;101874.63;;;12.65;50.74
54556;BME280;57291;37.520;15.106;2023-11-19T05:22:02;101881.16;;;12.70;50.61
54556;BME280;57291;37.520;15.106;2023-11-19T05:24:31;101872.97;;;12.70;50.30
54556;BME280;57291;37.520;15.106;2023-11-19T05:26:58;101887.16;;;12.72;50.30
54556;BME280;57291;37.520;15.106;2023-11-19T05:29:26;101886.06;;;12.73;50.60
54556;BME280;57291;37.520;15.106;2023-11-19T05:31:54;101890.13;;;12.75;50.89
54556;BME280;57291;37.520;15.106;2023-11-19T05:34:22;101894.50;;;12.76;50.92
54556;BME280;57291;37.520;15.106;2023-11-19T05:36:49;101882.25;;;12.74;50.72
54556;BME280;57291;37.520;15.106;2023-11-19T05:39:17;101877.91;;;12.67;50.55
54556;BME280;57291;37.520;15.106;2023-11-19T05:41:47;101886.91;;;12.68;50.67
54556;BME280;57291;37.520;15.106;2023-11-19T05:44:15;101885.28;;;12.67;50.50
54556;BME280;57291;37.520;15.106;2023-11-19T05:46:42;101884.19;;;12.68;50.39
54556;BME280;57291;37.520;15.106;2023-11-19T05:49:11;101895.31;;;12.77;50.74
54556;BME280;57291;37.520;15.106;2023-11-19T05:51:39;101892.25;;;12.88;51.04
54556;BME280;57291;37.520;15.106;2023-11-19T05:54:08;101883.91;;;13.09;50.73
54556;BME280;57291;37.520;15.106;2023-11-19T05:56:36;101889.13;;;13.45;50.50
54556;BME280;57291;37.520;15.106;2023-11-19T05:59:03;101896.78;;;13.77;49.05
54556;BME280;57291;37.520;15.106;2023-11-19T06:01:34;101902.84;;;13.98;48.03
54556;BME280;57291;37.520;15.106;2023-11-19T06:04:02;101904.41;;;14.04;47.70
54556;BME280;57291;37.520;15.106;2023-11-19T06:06:31;101899.47;;;14.06;47.73
54556;BME280;57291;37.520;15.106;2023-11-19T06:08:58;101904.41;;;14.04;47.74
54556;BME280;57291;37.520;15.106;2023-11-19T06:11:38;101898.94;;;14.04;47.69
54556;BME280;57291;37.520;15.106;2023-11-19T06:14:06;101906.88;;;14.05;47.79
54556;BME280;57291;37.520;15.106;2023-11-19T06:16:34;101908.19;;;14.08;47.40
54556;BME280;57291;37.520;15.106;2023-11-19T06:19:01;101896.66;;;14.11;47.21
54556;BME280;57291;37.520;15.106;2023-11-19T06:21:29;101904.88;;;14.11;47.08
54556;BME280;57291;37.520;15.106;2023-11-19T06:23:56;101916.81;;;14.20;47.33
54556;BME280;57291;37.520;15.106;2023-11-19T06:26:26;101915.34;;;14.28;47.22
54556;BME280;57291;37.520;15.106;2023-11-19T06:28:53;101916.09;;;14.34;47.20
54556;BME280;57291;37.520;15.106;2023-11-19T06:31:21;101931.66;;;14.38;47.44
54556;BME280;57291;37.520;15.106;2023-11-19T06:33:49;101925.06;;;14.39;47.39
54556;BME280;57291;37.520;15.106;2023-11-19T06:36:16;101923.81;;;14.31;47.42
54556;BME280;57291;37.520;15.106;2023-11-19T06:38:43;101928.69;;;14.35;47.23
54556;BME280;57291;37.520;15.106;2023-11-19T06:41:10;101927.13;;;14.28;47.27
54556;BME280;57291;37.520;15.106;2023-11-19T06:43:38;101933.69;;;14.27;47.40
54556;BME280;57291;37.520;15.106;2023-11-19T06:46:18;101930.66;;;14.29;47.30
54556;BME280;57291;37.520;15.106;2023-11-19T06:48:47;101929.28;;;14.31;47.01
54556;BME280;57291;37.520;15.106;2023-11-19T06:51:14;101933.06;;;14.36;47.13
54556;BME280;57291;37.520;15.106;2023-11-19T06:53:45;101930.31;;;14.36;46.82
54556;BME280;57291;37.520;15.106;2023-11-19T06:56:22;101940.13;;;14.37;46.78
54556;BME280;57291;37.520;15.106;2023-11-19T06:58:51;101954.28;;;14.44;46.80
54556;BME280;57291;37.520;15.106;2023-11-19T07:01:18;101958.59;;;14.50;46.61
54556;BME280;57291;37.520;15.106;2023-11-19T07:03:46;101952.78;;;14.57;46.65
54556;BME280;57291;37.520;15.106;2023-11-19T07:06:18;101965.84;;;14.65;46.44
54556;BME280;57291;37.520;15.106;2023-11-19T07:09:02;101965.25;;;14.68;46.11
54556;BME280;57291;37.520;15.106;2023-11-19T07:11:41;101975.09;;;14.69;46.08
54556;BME280;57291;37.520;15.106;2023-11-19T07:14:08;101977.00;;;14.68;46.21
54556;BME280;57291;37.520;15.106;2023-11-19T07:16:36;101974.50;;;14.72;45.99
54556;BME280;57291;37.520;15.106;2023-11-19T07:19:06;101983.38;;;14.83;45.97
54556;BME280;57291;37.520;15.106;2023-11-19T07:21:33;101980.66;;;14.83;45.74
54556;BME280;57291;37.520;15.106;2023-11-19T07:24:02;101979.78;;;14.87;45.80
54556;BME280;57291;37.520;15.106;2023-11-19T07:26:30;101992.00;;;14.95;45.69
54556;BME280;57291;37.520;15.106;2023-11-19T07:28:57;101985.84;;;15.03;45.32
54556;BME280;57291;37.520;15.106;2023-11-19T07:31:24;101988.16;;;15.15;45.19
54556;BME280;57291;37.520;15.106;2023-11-19T07:33:52;101999.28;;;15.23;45.81
54556;BME280;57291;37.520;15.106;2023-11-19T07:36:19;101985.28;;;15.25;47.25
54556;BME280;57291;37.520;15.106;2023-11-19T07:38:46;101981.88;;;15.33;47.69
54556;BME280;57291;37.520;15.106;2023-11-19T07:41:15;101982.59;;;15.39;47.04
54556;BME280;57291;37.520;15.106;2023-11-19T07:43:46;101978.47;;;15.41;45.58
54556;BME280;57291;37.520;15.106;2023-11-19T07:46:17;101975.78;;;15.36;44.59
54556;BME280;57291;37.520;15.106;2023-11-19T07:48:47;101992.81;;;15.33;44.09
54556;BME280;57291;37.520;15.106;2023-11-19T07:51:15;101995.88;;;15.32;43.68
54556;BME280;57291;37.520;15.106;2023-11-19T07:53:42;101989.16;;;15.24;44.21
54556;BME280;57291;37.520;15.106;2023-11-19T07:56:11;101995.22;;;15.21;44.04
54556;BME280;57291;37.520;15.106;2023-11-19T07:58:38;101999.56;;;15.22;43.85
54556;BME280;57291;37.520;15.106;2023-11-19T08:01:05;101993.66;;;15.34;43.43
54556;BME280;57291;37.520;15.106;2023-11-19T08:03:33;101984.47;;;15.43;43.39
54556;BME280;57291;37.520;15.106;2023-11-19T08:06:03;101996.19;;;15.63;43.36
54556;BME280;57291;37.520;15.106;2023-11-19T08:08:30;101997.78;;;15.69;42.94
54556;BME280;57291;37.520;15.106;2023-11-19T08:11:00;101992.88;;;15.85;42.69
54556;BME280;57291;37.520;15.106;2023-11-19T08:13:28;101990.88;;;15.90;42.89
54556;BME280;57291;37.520;15.106;2023-11-19T08:15:56;101993.34;;;16.06;42.53
54556;BME280;57291;37.520;15.106;2023-11-19T08:18:23;101990.72;;;16.14;42.75
54556;BME280;57291;37.520;15.106;2023-11-19T08:20:51;101996.91;;;16.20;42.50
54556;BME280;57291;37.520;15.106;2023-11-19T08:23:20;101987.38;;;16.31;42.42
54556;BME280;57291;37.520;15.106;2023-11-19T08:25:48;101986.97;;;16.38;42.29
54556;BME280;57291;37.520;15.106;2023-11-19T08:28:16;101977.94;;;16.51;42.02
54556;BME280;57291;37.520;15.106;2023-11-19T08:30:44;101984.75;;;16.68;41.90
54556;BME280;57291;37.520;15.106;2023-11-19T08:33:12;101992.09;;;16.86;42.02
54556;BME280;57291;37.520;15.106;2023-11-19T08:35:40;101986.19;;;16.93;41.92
54556;BME280;57291;37.520;15.106;2023-11-19T08:38:07;101987.56;;;17.18;41.71
54556;BME280;57291;37.520;15.106;2023-11-19T08:40:35;101983.97;;;17.17;41.34
54556;BME280;57291;37.520;15.106;2023-11-19T08:43:02;101989.25;;;17.27;41.52
54556;BME280;57291;37.520;15.106;2023-11-19T08:45:30;101984.72;;;17.45;41.28
54556;BME280;57291;37.520;15.106;2023-11-19T08:47:58;101982.91;;;17.63;40.70
54556;BME280;57291;37.520;15.106;2023-11-19T08:50:25;101986.72;;;17.76;40.45
54556;BME280;57291;37.520;15.106;2023-11-19T08:52:52;101990.81;;;17.78;40.45
54556;BME280;57291;37.520;15.106;2023-11-19T08:55:19;101991.50;;;17.84;40.72
54556;BME280;57291;37.520;15.106;2023-11-19T08:57:47;101988.31;;;17.91;40.53
54556;BME280;57291;37.520;15.106;2023-11-19T09:00:14;101978.97;;;18.00;40.15
54556;BME280;57291;37.520;15.106;2023-11-19T09:02:42;101992.81;;;18.18;40.20
54556;BME280;57291;37.520;15.106;2023-11-19T09:05:10;101979.00;;;18.09;40.01
54556;BME280;57291;37.520;15.106;2023-11-19T09:07:38;101983.16;;;18.29;40.06
54556;BME280;57291;37.520;15.106;2023-11-19T09:10:05;101982.56;;;18.41;39.70
54556;BME280;57291;37.520;15.106;2023-11-19T09:12:32;101981.59;;;18.37;39.61
54556;BME280;57291;37.520;15.106;2023-11-19T09:15:00;101985.19;;;18.55;38.90
54556;BME280;57291;37.520;15.106;2023-11-19T09:17:27;101981.25;;;18.78;38.16
54556;BME280;57291;37.520;15.106;2023-11-19T09:19:54;101988.91;;;18.98;38.33
54556;BME280;57291;37.520;15.106;2023-11-19T09:22:22;101988.13;;;19.07;37.02
54556;BME280;57291;37.520;15.106;2023-11-19T09:24:50;101989.41;;;19.18;35.73
54556;BME280;57291;37.520;15.106;2023-11-19T09:27:17;101990.41;;;19.22;34.62
54556;BME280;57291;37.520;15.106;2023-11-19T09:29:45;101985.22;;;19.29;34.28
54556;BME280;57291;37.520;15.106;2023-11-19T09:32:13;101983.09;;;19.43;34.62
54556;BME280;57291;37.520;15.106;2023-11-19T09:34:41;101987.97;;;19.64;33.94
54556;BME280;57291;37.520;15.106;2023-11-19T09:37:08;101989.13;;;19.72;33.18
54556;BME280;57291;37.520;15.106;2023-11-19T09:39:38;101982.63;;;19.76;32.48
54556;BME280;57291;37.520;15.106;2023-11-19T09:42:05;101979.84;;;19.76;33.49
54556;BME280;57291;37.520;15.106;2023-11-19T09:44:33;101971.53;;;19.94;33.25
54556;BME280;57291;37.520;15.106;2023-11-19T09:47:01;101961.94;;;20.00;33.08
54556;BME280;57291;37.520;15.106;2023-11-19T09:49:28;101963.91;;;19.99;33.78
54556;BME280;57291;37.520;15.106;2023-11-19T09:51:59;101966.06;;;19.76;34.06
54556;BME280;57291;37.520;15.106;2023-11-19T09:54:27;101964.59;;;19.44;33.59
54556;BME280;57291;37.520;15.106;2023-11-19T09:56:57;101957.97;;;19.28;33.61
54556;BME280;57291;37.520;15.106;2023-11-19T09:59:30;101960.38;;;19.38;33.89
54556;BME280;57291;37.520;15.106;2023-11-19T10:02:02;101955.53;;;19.17;34.42
54556;BME280;57291;37.520;15.106;2023-11-19T10:04:34;101957.31;;;19.48;34.39
54556;BME280;57291;37.520;15.106;2023-11-19T10:07:12;101949.03;;;19.74;34.76
54556;BME280;57291;37.520;15.106;2023-11-19T10:09:39;101937.97;;;19.91;33.73
54556;BME280;57291;37.520;15.106;2023-11-19T10:12:07;101943.94;;;19.94;33.60
54556;BME280;57291;37.520;15.106;2023-11-19T10:14:37;101941.19;;;19.94;32.67
54556;BME280;57291;37.520;15.106;2023-11-19T10:17:08;101945.56;;;19.95;32.35
54556;BME280;57291;37.520;15.106;2023-11-19T10:19:36;101944.63;;;19.82;32.64
54556;BME280;57291;37.520;15.106;2023-11-19T10:22:07;101941.22;;;19.85;33.29
54556;BME280;57291;37.520;15.106;2023-11-19T10:24:34;101942.53;;;19.79;33.42
54556;BME280;57291;37.520;15.106;2023-11-19T10:27:07;101938.63;;;19.80;32.57
54556;BME280;57291;37.520;15.106;2023-11-19T10:29:37;101932.00;;;19.72;33.11
54556;BME280;57291;37.520;15.106;2023-11-19T10:32:05;101936.88;;;19.75;32.44
54556;BME280;57291;37.520;15.106;2023-11-19T10:34:52;101926.50;;;19.72;33.71
54556;BME280;57291;37.520;15.106;2023-11-19T10:37:29;101936.69;;;19.80;33.21
54556;BME280;57291;37.520;15.106;2023-11-19T10:40:00;101917.84;;;19.91;33.65
54556;BME280;57291;37.520;15.106;2023-11-19T10:42:27;101925.13;;;19.96;32.38
54556;BME280;57291;37.520;15.106;2023-11-19T10:44:54;101921.88;;;19.94;33.08
54556;BME280;57291;37.520;15.106;2023-11-19T10:47:23;101912.97;;;19.88;31.99
54556;BME280;57291;37.520;15.106;2023-11-19T10:49:53;101907.75;;;19.95;33.60
54556;BME280;57291;37.520;15.106;2023-11-19T10:52:21;101903.03;;;19.96;30.44
54556;BME280;57291;37.520;15.106;2023-11-19T10:54:50;101898.63;;;20.03;29.47
54556;BME280;57291;37.520;15.106;2023-11-19T10:57:21;101900.22;;;20.13;29.17
54556;BME280;57291;37.520;15.106;2023-11-19T10:59:49;101899.25;;;20.09;30.46
54556;BME280;57291;37.520;15.106;2023-11-19T11:02:21;101888.31;;;19.83;32.35
54556;BME280;57291;37.520;15.106;2023-11-19T11:04:51;101892.09;;;19.78;33.75
54556;BME280;57291;37.520;15.106;2023-11-19T11:07:21;101888.34;;;19.74;34.07
54556;BME280;57291;37.520;15.106;2023-11-19T11:10:06;101884.94;;;19.77;37.27
54556;BME280;57291;37.520;15.106;2023-11-19T11:12:37;101878.47;;;19.73;37.98
54556;BME280;57291;37.520;15.106;2023-11-19T11:15:11;101874.59;;;19.65;37.52
54556;BME280;57291;37.520;15.106;2023-11-19T11:17:44;101862.25;;;19.63;38.06
54556;BME280;57291;37.520;15.106;2023-11-19T11:20:13;101865.97;;;19.67;37.59
54556;BME280;57291;37.520;15.106;2023-11-19T11:28:29;101853.78;;;20.15;36.71
54556;BME280;57291;37.520;15.106;2023-11-19T11:31:09;101845.00;;;20.13;36.05
54556;BME280;57291;37.520;15.106;2023-11-19T11:36:20;101837.53;;;19.84;36.42
54556;BME280;57291;37.520;15.106;2023-11-19T11:38:49;101837.69;;;19.87;36.48
54556;BME280;57291;37.520;15.106;2023-11-19T11:41:21;101831.47;;;19.90;36.32
54556;BME280;57291;37.520;15.106;2023-11-19T11:43:52;101834.09;;;19.87;34.82
54556;BME280;57291;37.520;15.106;2023-11-19T11:49:03;101830.50;;;19.95;34.30
54556;BME280;57291;37.520;15.106;2023-11-19T12:02:13;101834.97;;;19.79;34.55
54556;BME280;57291;37.520;15.106;2023-11-19T12:04:41;101834.00;;;19.75;34.87
54556;BME280;57291;37.520;15.106;2023-11-19T12:07:19;101824.59;;;19.67;35.06
54556;BME280;57291;37.520;15.106;2023-11-19T12:09:53;101824.91;;;19.74;35.80
54556;BME280;57291;37.520;15.106;2023-11-19T12:12:26;101820.50;;;19.82;36.41
54556;BME280;57291;37.520;15.106;2023-11-19T12:15:02;101815.09;;;19.94;35.89
54556;BME280;57291;37.520;15.106;2023-11-19T12:20:01;101807.34;;;19.87;38.74
54556;BME280;57291;37.520;15.106;2023-11-19T12:22:29;101806.81;;;19.94;39.35
54556;BME280;57291;37.520;15.106;2023-11-19T12:24:56;101794.13;;;20.02;39.13
54556;BME280;57291;37.520;15.106;2023-11-19T12:27:24;101790.34;;;20.06;39.78
54556;BME280;57291;37.520;15.106;2023-11-19T12:29:53;101796.22;;;20.05;37.95
54556;BME280;57291;37.520;15.106;2023-11-19T12:32:21;101788.31;;;19.95;40.34
54556;BME280;57291;37.520;15.106;2023-11-19T12:34:48;101791.06;;;19.95;39.48
54556;BME280;57291;37.520;15.106;2023-11-19T12:37:16;101789.78;;;19.92;40.01
54556;BME280;57291;37.520;15.106;2023-11-19T12:39:45;101782.44;;;19.96;41.52
54556;BME280;57291;37.520;15.106;2023-11-19T12:42:12;101778.50;;;19.76;40.42
54556;BME280;57291;37.520;15.106;2023-11-19T12:44:55;101778.00;;;19.74;41.04
54556;BME280;57291;37.520;15.106;2023-11-19T12:47:23;101781.59;;;19.75;42.97
54556;BME280;57291;37.520;15.106;2023-11-19T12:49:57;101787.72;;;19.80;42.71
54556;BME280;57291;37.520;15.106;2023-11-19T12:52:24;101785.34;;;19.70;41.83
54556;BME280;57291;37.520;15.106;2023-11-19T12:54:51;101780.97;;;19.69;43.12
54556;BME280;57291;37.520;15.106;2023-11-19T12:57:19;101781.19;;;19.55;43.49
54556;BME280;57291;37.520;15.106;2023-11-19T12:59:56;101773.84;;;19.59;43.08
54556;BME280;57291;37.520;15.106;2023-11-19T13:02:45;101780.69;;;19.53;44.11
54556;BME280;57291;37.520;15.106;2023-11-19T13:05:27;101773.28;;;19.36;44.32
54556;BME280;57291;37.520;15.106;2023-11-19T13:10:29;101767.63;;;19.33;44.52
54556;BME280;57291;37.520;15.106;2023-11-19T13:13:07;101769.22;;;19.42;45.25
54556;BME280;57291;37.520;15.106;2023-11-19T13:15:38;101776.25;;;19.61;45.83
54556;BME280;57291;37.520;15.106;2023-11-19T13:18:07;101766.38;;;19.60;45.38